Gjoa Haven Airport
CYHK : now visible

Airfield :











YOU CAN JOIN US ON...

 
LOGIN :

Register | Disclaimer

   EN    FR    IT 

 









Legend :    VFR   Marginal VFR   IFR   Intensive IFR   Very Intensive IFR
Visi :
Ceiling :
>= 8 km
>= 3000ft
5 to 8 km
1000 to 3000 ft
1500m to 5 km
500 to 1000 ft
800 to 1500m
200 to 500 ft
< 800m
< 200 ft
Symbols :   Thunderstorms  Fog  Heavy snow  Heavy precipitations  Wind > 20 kt






- Airport Elevation : 152 ft
- IATA code : YHK


CYHK - Gjoa Haven

CURRENT METAR :
  • 091000Z AUTO 21018KT 8SM CLR M25/M27 A2955 RMK SLP018

EXPIRED METARs :
  • 090900Z AUTO 22019KT 6SM BR FEW120 M25/M27 A2955 RMK SLP016
  • 090800Z AUTO 22017KT 8SM CLR M25/M27 A2954 RMK SLP013

TAF TAF CYHK
Valid from the 09 at 06:00 until the 09 at 18:00 UTC


090540Z 0906/0918 22015KT P6SM FEW120 BKN220 RMK FCST BASED ON AUTO OBS. NXT FCST BY 091200Z
CZEG FIR / North America



MET'MAP, your aeronautical weather chart ! - Copyright ORBIFLY December 2007 - Disclaimer

ORBIFLY MET'MAP TEAM :

Programming & Development : Alexandra Zaïnal
Concept & original design : Baudouin d'Aumeries
Assistance for programming : Marc-Olivier Méhu
Technical & hardware support : Manuel Goepfert

Contact : metmap@orbifly.com




SOURCES & CREDITS :

   NOAA       Earth
Advisory